createdAt,value
2022-09-20T00:00:48.907Z,9.30
2022-09-20T00:03:17.289Z,9.10
2022-09-20T00:05:46.881Z,9.00
2022-09-20T00:08:15.770Z,8.80
2022-09-20T00:10:44.954Z,9.00
2022-09-20T00:13:13.915Z,8.90
2022-09-20T00:15:42.636Z,9.00
2022-09-20T00:18:10.455Z,8.80
2022-09-20T00:20:38.414Z,8.90
2022-09-20T00:23:06.350Z,8.80
2022-09-20T00:25:34.292Z,8.70
2022-09-20T00:28:03.738Z,8.80
2022-09-20T00:30:31.619Z,8.80
2022-09-20T00:32:59.419Z,8.70
2022-09-20T00:35:26.742Z,8.80
2022-09-20T00:37:54.567Z,8.80
2022-09-20T00:40:23.122Z,9.00
2022-09-20T00:42:51.054Z,9.10
2022-09-20T00:45:22.772Z,9.10
2022-09-20T00:47:52.155Z,9.00
2022-09-20T00:50:27.067Z,9.00
2022-09-20T00:52:57.735Z,9.10
2022-09-20T00:55:25.781Z,8.90
2022-09-20T00:57:53.569Z,9.10
2022-09-20T01:00:22.905Z,9.00
2022-09-20T01:02:52.806Z,8.90
2022-09-20T01:05:20.752Z,8.80
2022-09-20T01:07:49.062Z,8.70
2022-09-20T01:10:17.059Z,8.80
2022-09-20T01:12:46.088Z,8.80
2022-09-20T01:15:14.432Z,8.70
2022-09-20T01:17:45.514Z,8.60
2022-09-20T01:20:19.567Z,8.50
2022-09-20T01:23:08.576Z,8.50
2022-09-20T01:26:09.259Z,8.50
2022-09-20T01:28:38.548Z,8.40
2022-09-20T01:31:08.629Z,8.30
2022-09-20T01:33:39.787Z,8.40
2022-09-20T01:36:08.514Z,8.20
2022-09-20T01:38:40.971Z,8.30
2022-09-20T01:41:11.070Z,8.30
2022-09-20T01:43:41.999Z,8.20
2022-09-20T01:46:20.707Z,8.20
2022-09-20T01:48:48.661Z,8.10
2022-09-20T01:51:45.743Z,7.90
2022-09-20T01:54:26.991Z,7.90
2022-09-20T01:57:27.309Z,7.90
2022-09-20T02:00:10.350Z,7.90
2022-09-20T02:03:12.433Z,7.80
2022-09-20T02:06:23.272Z,7.80
2022-09-20T02:09:17.713Z,7.90
2022-09-20T02:11:52.170Z,7.80
2022-09-20T02:14:36.873Z,7.90
2022-09-20T02:17:13.823Z,8.00
2022-09-20T02:20:05.846Z,7.80
2022-09-20T02:22:46.181Z,7.80
2022-09-20T02:25:21.263Z,7.80
2022-09-20T02:27:53.923Z,7.80
2022-09-20T02:30:27.941Z,7.80
2022-09-20T02:33:25.080Z,7.60
2022-09-20T02:35:58.828Z,7.50
2022-09-20T02:38:38.543Z,7.50
2022-09-20T02:41:39.417Z,7.60
2022-09-20T02:44:09.976Z,7.60
2022-09-20T02:46:42.374Z,7.40
2022-09-20T02:49:13.930Z,7.30
2022-09-20T02:51:42.495Z,7.40
2022-09-20T02:54:18.215Z,7.40
2022-09-20T02:56:49.006Z,7.50
2022-09-20T02:59:21.627Z,7.40
2022-09-20T03:01:51.610Z,7.30
2022-09-20T03:04:27.228Z,7.30
2022-09-20T03:07:22.059Z,7.70
2022-09-20T03:10:07.483Z,7.50
2022-09-20T03:13:18.620Z,7.50
2022-09-20T03:15:53.845Z,7.20
2022-09-20T03:18:35.222Z,7.20
2022-09-20T03:21:12.101Z,7.10
2022-09-20T03:27:18.384Z,7.00
2022-09-20T03:29:55.715Z,7.20
2022-09-20T03:32:32.063Z,7.10
2022-09-20T03:35:04.419Z,6.90
2022-09-20T03:37:42.838Z,6.80
2022-09-20T03:40:28.560Z,6.70
2022-09-20T03:42:56.385Z,6.60
2022-09-20T03:45:40.844Z,6.70
2022-09-20T03:48:25.752Z,6.50
2022-09-20T03:51:00.324Z,6.50
2022-09-20T03:54:17.097Z,6.50
2022-09-20T03:57:08.737Z,6.30
2022-09-20T03:59:44.929Z,6.40
2022-09-20T04:02:24.313Z,6.60
2022-09-20T04:04:53.963Z,6.60
2022-09-20T04:07:24.562Z,6.70
2022-09-20T04:10:13.751Z,6.60
2022-09-20T04:12:46.372Z,6.40
2022-09-20T04:15:24.817Z,6.30
2022-09-20T04:17:56.857Z,6.30
2022-09-20T04:20:28.423Z,6.30
2022-09-20T04:22:57.642Z,6.30
2022-09-20T04:25:28.556Z,6.40
2022-09-20T04:27:59.702Z,6.40
2022-09-20T04:30:29.806Z,6.30
2022-09-20T04:33:00.621Z,6.50
2022-09-20T04:35:54.255Z,6.40
2022-09-20T04:38:22.560Z,6.30
2022-09-20T04:41:20.580Z,6.20
2022-09-20T04:44:21.858Z,6.30
2022-09-20T04:47:05.918Z,6.30
2022-09-20T04:50:11.910Z,6.50
2022-09-20T04:53:09.498Z,6.50
2022-09-20T04:55:47.292Z,6.30
2022-09-20T04:58:33.944Z,6.50
2022-09-20T05:01:37.179Z,6.50
2022-09-20T05:04:38.237Z,6.60
2022-09-20T05:07:39.190Z,6.40
2022-09-20T05:10:17.010Z,6.30
2022-09-20T05:12:56.436Z,6.50
2022-09-20T05:15:28.830Z,6.40
2022-09-20T05:18:33.092Z,6.30
2022-09-20T05:21:23.135Z,6.30
2022-09-20T05:23:59.919Z,6.30
2022-09-20T05:26:34.149Z,6.30
2022-09-20T05:29:03.602Z,6.30
2022-09-20T05:31:38.084Z,6.30
2022-09-20T05:34:11.024Z,6.30
2022-09-20T05:36:44.202Z,6.40
2022-09-20T05:39:19.935Z,6.30
2022-09-20T05:41:50.613Z,6.50
2022-09-20T05:44:31.070Z,6.40
2022-09-20T05:47:03.851Z,6.40
2022-09-20T05:49:40.670Z,6.50
2022-09-20T05:52:15.537Z,6.50
2022-09-20T05:54:58.982Z,6.50
2022-09-20T05:57:32.478Z,6.60
2022-09-20T06:00:03.048Z,6.60
2022-09-20T06:02:36.143Z,6.70
2022-09-20T06:05:10.181Z,6.70
2022-09-20T06:07:46.786Z,6.80
2022-09-20T06:10:34.425Z,6.90
2022-09-20T06:13:05.649Z,6.80
2022-09-20T06:15:37.082Z,6.80
2022-09-20T06:18:15.039Z,6.80
2022-09-20T06:20:48.427Z,6.90
2022-09-20T06:23:16.198Z,7.00
2022-09-20T06:25:45.751Z,7.10
2022-09-20T06:28:15.096Z,7.20
2022-09-20T06:30:45.098Z,7.40
2022-09-20T06:33:16.554Z,7.40
2022-09-20T06:35:48.556Z,7.60
2022-09-20T06:38:53.369Z,7.50
2022-09-20T06:41:30.605Z,7.50
2022-09-20T06:43:59.453Z,7.50
2022-09-20T06:46:28.083Z,7.60
2022-09-20T06:48:56.144Z,7.60
2022-09-20T06:51:26.407Z,7.50
2022-09-20T06:53:54.358Z,7.60
2022-09-20T06:56:25.074Z,7.80
2022-09-20T06:58:53.158Z,7.70
2022-09-20T07:01:29.716Z,7.90
2022-09-20T07:03:57.813Z,8.10
2022-09-20T07:06:27.346Z,8.10
2022-09-20T07:08:55.163Z,8.00
2022-09-20T07:11:23.186Z,8.00
2022-09-20T07:13:52.232Z,8.10
2022-09-20T07:16:20.147Z,8.30
2022-09-20T07:18:48.080Z,8.40
2022-09-20T07:21:16.556Z,8.40
2022-09-20T07:27:29.204Z,8.60
2022-09-20T07:29:57.416Z,8.90
2022-09-20T07:32:25.184Z,8.90
2022-09-20T07:34:52.994Z,8.90
2022-09-20T07:37:21.158Z,9.10
2022-09-20T07:39:49.905Z,9.10
2022-09-20T07:42:17.763Z,9.10
2022-09-20T07:44:50.615Z,9.30
2022-09-20T07:47:18.534Z,10.10
2022-09-20T07:49:46.379Z,10.10
2022-09-20T07:52:14.695Z,10.10
2022-09-20T07:54:42.533Z,10.00
2022-09-20T07:57:10.400Z,10.20
2022-09-20T07:59:38.227Z,10.10
2022-09-20T08:02:07.517Z,10.30
2022-09-20T08:04:35.363Z,10.80
2022-09-20T08:07:03.211Z,11.20
2022-09-20T08:09:31.036Z,11.30
2022-09-20T08:11:59.029Z,11.20
2022-09-20T08:14:26.903Z,11.20
2022-09-20T08:16:58.168Z,11.30
2022-09-20T08:19:27.612Z,11.30
2022-09-20T08:21:55.591Z,11.40
2022-09-20T08:24:26.128Z,11.30
2022-09-20T08:26:53.949Z,11.20
2022-09-20T08:29:21.738Z,11.40
2022-09-20T08:31:49.608Z,11.20
2022-09-20T08:34:17.802Z,11.20
2022-09-20T08:36:50.055Z,11.20
2022-09-20T08:42:11.810Z,11.10
2022-09-20T08:44:46.845Z,11.20
2022-09-20T08:47:17.715Z,11.40
2022-09-20T08:49:46.700Z,11.40
2022-09-20T08:52:17.771Z,11.30
2022-09-20T08:54:45.601Z,11.30
2022-09-20T08:57:15.951Z,11.40
2022-09-20T08:59:43.957Z,11.80
2022-09-20T09:02:16.131Z,11.90
2022-09-20T09:04:44.653Z,12.10
2022-09-20T09:07:13.381Z,12.40
2022-09-20T09:09:42.867Z,12.30
2022-09-20T09:12:16.690Z,12.50
2022-09-20T09:14:52.402Z,12.30
2022-09-20T09:17:20.934Z,12.40
2022-09-20T09:19:49.699Z,13.20
2022-09-20T09:22:22.842Z,14.00
2022-09-20T09:25:24.098Z,13.70
2022-09-20T09:27:56.994Z,13.90
2022-09-20T09:30:27.316Z,13.60
2022-09-20T09:33:15.704Z,13.60
2022-09-20T09:35:43.574Z,14.10
2022-09-20T09:38:18.449Z,13.90
2022-09-20T09:40:52.563Z,14.00
2022-09-20T09:43:23.323Z,13.80
2022-09-20T09:45:51.232Z,13.60
2022-09-20T09:48:20.294Z,13.70
2022-09-20T09:50:48.868Z,13.40
2022-09-20T09:53:20.729Z,13.40
2022-09-20T09:56:13.875Z,13.30
2022-09-20T09:58:48.862Z,13.00
2022-09-20T10:01:29.992Z,12.80
2022-09-20T10:04:03.405Z,12.90
2022-09-20T10:06:33.163Z,12.80
2022-09-20T10:09:24.901Z,12.60
2022-09-20T10:12:00.931Z,12.00
2022-09-20T10:14:35.754Z,11.90
2022-09-20T10:17:12.209Z,11.90
2022-09-20T10:19:49.680Z,11.80
2022-09-20T10:22:24.622Z,12.00
2022-09-20T10:24:55.838Z,12.20
2022-09-20T10:27:34.949Z,11.80
2022-09-20T10:30:09.374Z,11.80
2022-09-20T10:32:45.848Z,12.70
2022-09-20T10:35:34.596Z,13.50
2022-09-20T10:38:15.902Z,13.00
2022-09-20T10:41:11.758Z,12.70
2022-09-20T10:43:59.234Z,12.60
2022-09-20T10:46:33.420Z,12.50
2022-09-20T10:49:08.450Z,12.40
2022-09-20T10:51:43.146Z,13.10
2022-09-20T10:54:14.435Z,13.90
2022-09-20T10:56:49.206Z,14.40
2022-09-20T10:59:36.411Z,14.80
2022-09-20T11:02:15.222Z,14.80
2022-09-20T11:04:56.284Z,14.20
2022-09-20T11:07:27.610Z,13.90
2022-09-20T11:09:58.671Z,13.40
2022-09-20T11:12:28.101Z,13.00
2022-09-20T11:14:58.709Z,13.10
2022-09-20T11:17:28.107Z,13.30
2022-09-20T11:20:04.703Z,14.00
2022-09-20T11:22:36.256Z,13.90
2022-09-20T11:25:06.591Z,13.60
2022-09-20T11:27:37.426Z,13.60
2022-09-20T11:30:08.382Z,13.80
2022-09-20T11:32:38.310Z,13.40
2022-09-20T11:35:15.133Z,13.50
2022-09-20T11:37:44.617Z,13.10
2022-09-20T11:40:16.868Z,13.00
2022-09-20T11:42:45.044Z,12.80
2022-09-20T11:45:14.251Z,13.00
2022-09-20T11:47:54.552Z,13.20
2022-09-20T11:50:57.059Z,13.50
2022-09-20T11:53:36.673Z,13.90
2022-09-20T11:56:06.535Z,13.30
2022-09-20T11:58:46.381Z,13.20
2022-09-20T12:01:16.735Z,13.30
2022-09-20T12:03:45.567Z,13.10
2022-09-20T12:06:25.499Z,13.10
2022-09-20T12:08:53.401Z,13.00
2022-09-20T12:11:29.525Z,13.00
2022-09-20T12:14:02.012Z,13.60
2022-09-20T12:16:42.134Z,13.70
2022-09-20T12:19:13.932Z,13.70
2022-09-20T12:22:28.011Z,13.70
2022-09-20T12:25:34.877Z,13.60
2022-09-20T12:28:02.755Z,13.40
2022-09-20T12:30:33.193Z,13.40
2022-09-20T12:33:02.642Z,13.50
2022-09-20T12:36:15.669Z,13.60
2022-09-20T12:39:03.461Z,13.40
2022-09-20T12:41:46.453Z,13.30
2022-09-20T12:44:29.696Z,13.40
2022-09-20T12:46:58.622Z,13.20
2022-09-20T12:49:54.127Z,13.10
2022-09-20T12:52:44.412Z,13.20
2022-09-20T12:55:12.780Z,13.60
2022-09-20T12:57:40.930Z,13.50
2022-09-20T13:00:09.674Z,13.40
2022-09-20T13:02:57.063Z,13.20
2022-09-20T13:05:33.890Z,13.20
2022-09-20T13:08:03.065Z,13.20
2022-09-20T13:10:40.854Z,13.30
2022-09-20T13:13:32.610Z,13.20
2022-09-20T13:16:01.195Z,13.20
2022-09-20T13:18:29.064Z,12.90
2022-09-20T13:21:00.268Z,12.80
2022-09-20T13:23:29.243Z,12.90
2022-09-20T13:25:58.040Z,13.20
2022-09-20T13:28:45.394Z,13.30
2022-09-20T13:31:26.959Z,13.30
2022-09-20T13:33:54.839Z,13.20
2022-09-20T13:36:28.409Z,13.00
2022-09-20T13:38:57.198Z,13.00
2022-09-20T13:41:24.989Z,13.00
2022-09-20T13:43:52.986Z,13.00
2022-09-20T13:46:23.919Z,13.10
2022-09-20T13:48:54.602Z,13.00
2022-09-20T13:51:25.557Z,13.00
2022-09-20T13:53:54.823Z,12.80
2022-09-20T13:56:23.871Z,12.70
2022-09-20T13:58:52.620Z,13.10
2022-09-20T14:01:23.650Z,12.80
2022-09-20T14:03:51.482Z,13.30
2022-09-20T14:06:19.296Z,13.20
2022-09-20T14:08:48.062Z,12.90
2022-09-20T14:11:18.310Z,13.00
2022-09-20T14:13:47.487Z,12.90
2022-09-20T14:16:15.394Z,13.10
2022-09-20T14:18:43.207Z,13.10
2022-09-20T14:21:11.344Z,13.00
2022-09-20T14:23:51.013Z,13.00
2022-09-20T14:26:27.898Z,12.90
2022-09-20T14:28:56.970Z,12.90
2022-09-20T14:31:26.575Z,12.90
2022-09-20T14:33:55.563Z,12.90
2022-09-20T14:36:24.050Z,12.80
2022-09-20T14:38:52.984Z,12.80
2022-09-20T14:41:29.819Z,12.80
2022-09-20T14:43:58.545Z,12.70
2022-09-20T14:46:30.857Z,12.60
2022-09-20T14:49:19.754Z,12.70
2022-09-20T14:51:47.705Z,12.50
2022-09-20T14:54:26.959Z,12.50
2022-09-20T14:56:57.577Z,12.40
2022-09-20T14:59:26.287Z,12.40
2022-09-20T15:02:05.003Z,12.50
2022-09-20T15:04:33.004Z,12.40
2022-09-20T15:07:02.425Z,12.40
2022-09-20T15:09:30.635Z,12.40
2022-09-20T15:12:04.454Z,12.30
2022-09-20T15:14:37.194Z,12.30
2022-09-20T15:17:05.606Z,12.30
2022-09-20T15:19:34.393Z,12.20
2022-09-20T15:22:02.314Z,12.10
2022-09-20T15:24:30.128Z,11.80
2022-09-20T15:30:46.495Z,11.80
2022-09-20T15:33:14.708Z,11.90
2022-09-20T15:35:44.360Z,11.90
2022-09-20T15:45:42.893Z,11.70
2022-09-20T15:48:12.154Z,11.60
2022-09-20T15:51:05.725Z,11.50
2022-09-20T15:53:34.778Z,11.70
2022-09-20T15:56:03.496Z,11.60
2022-09-20T15:58:35.856Z,11.60
2022-09-20T16:01:05.993Z,11.70
2022-09-20T16:03:35.213Z,11.50
2022-09-20T16:06:04.750Z,11.50
2022-09-20T16:08:33.307Z,11.50
2022-09-20T16:11:01.220Z,11.60
2022-09-20T16:13:28.990Z,11.50
2022-09-20T16:15:57.156Z,11.50
2022-09-20T16:18:42.770Z,11.60
2022-09-20T16:21:12.960Z,11.50
2022-09-20T16:23:41.293Z,11.70
2022-09-20T16:26:12.958Z,11.60
2022-09-20T16:28:45.153Z,11.60
2022-09-20T16:31:32.648Z,11.70
2022-09-20T16:34:00.751Z,11.70
2022-09-20T16:36:29.894Z,11.60
2022-09-20T16:38:58.422Z,11.50
2022-09-20T16:41:26.952Z,11.40
2022-09-20T16:43:54.785Z,11.40
2022-09-20T16:46:22.839Z,11.50
2022-09-20T16:48:54.101Z,11.50
2022-09-20T16:51:24.081Z,11.40
2022-09-20T16:53:56.160Z,11.40
2022-09-20T16:56:24.870Z,11.30
2022-09-20T16:58:52.773Z,11.70
2022-09-20T17:01:20.691Z,11.70
2022-09-20T17:03:48.707Z,11.50
2022-09-20T17:06:16.994Z,11.40
2022-09-20T17:08:46.719Z,11.30
2022-09-20T17:11:16.947Z,11.20
2022-09-20T17:13:45.197Z,11.30
2022-09-20T17:16:13.670Z,11.20
2022-09-20T17:18:41.918Z,11.20
2022-09-20T17:21:10.787Z,11.30
2022-09-20T17:23:38.574Z,11.10
2022-09-20T17:26:07.572Z,11.10
2022-09-20T17:28:37.770Z,11.00
2022-09-20T17:31:05.961Z,11.10
2022-09-20T17:33:34.597Z,11.10
2022-09-20T17:36:03.496Z,11.00
2022-09-20T17:38:33.170Z,11.10
2022-09-20T17:41:02.548Z,11.10
2022-09-20T17:43:31.221Z,11.00
2022-09-20T17:46:07.635Z,11.10
2022-09-20T17:48:36.203Z,11.20
2022-09-20T17:51:04.131Z,11.10
2022-09-20T17:53:32.799Z,11.10
2022-09-20T17:56:00.851Z,10.90
2022-09-20T17:58:28.756Z,10.80
2022-09-20T18:01:02.731Z,10.80
2022-09-20T18:03:34.865Z,10.80
2022-09-20T18:06:12.819Z,10.60
2022-09-20T18:08:40.659Z,10.70
2022-09-20T18:11:08.617Z,10.60
2022-09-20T18:13:37.359Z,10.60
2022-09-20T18:16:06.383Z,10.70
2022-09-20T18:18:35.759Z,10.70
2022-09-20T18:21:10.761Z,10.70
2022-09-20T18:23:38.746Z,10.60
2022-09-20T18:26:23.317Z,10.50
2022-09-20T18:28:58.346Z,10.60
2022-09-20T18:31:28.250Z,10.60
2022-09-20T18:33:59.655Z,10.40
2022-09-20T18:36:28.028Z,10.30
2022-09-20T18:38:55.936Z,10.40
2022-09-20T18:41:25.618Z,10.50
2022-09-20T18:43:54.461Z,10.50
2022-09-20T18:46:25.055Z,10.40
2022-09-20T18:48:53.329Z,10.40
2022-09-20T18:51:24.234Z,10.80
2022-09-20T18:53:52.374Z,11.10
2022-09-20T18:56:24.533Z,10.70
2022-09-20T18:58:53.359Z,10.60
2022-09-20T19:01:58.771Z,10.50
2022-09-20T19:04:49.531Z,10.60
2022-09-20T19:07:21.871Z,10.50
2022-09-20T19:09:52.588Z,10.50
2022-09-20T19:12:24.192Z,10.40
2022-09-20T19:15:02.809Z,10.30
2022-09-20T19:17:40.810Z,10.30
2022-09-20T19:20:10.865Z,10.40
2022-09-20T19:22:45.561Z,10.30
2022-09-20T19:25:19.815Z,10.40
2022-09-20T19:27:48.285Z,10.40
2022-09-20T19:30:17.045Z,10.20
2022-09-20T19:32:45.480Z,10.30
2022-09-20T19:35:17.950Z,10.10
2022-09-20T19:37:55.101Z,10.20
2022-09-20T19:40:26.758Z,10.10
2022-09-20T19:43:03.109Z,10.10
2022-09-20T19:45:34.476Z,10.00
2022-09-20T19:48:05.246Z,10.00
2022-09-20T19:50:36.073Z,10.10
2022-09-20T19:53:05.674Z,9.90
2022-09-20T19:55:33.626Z,9.90
2022-09-20T19:58:01.942Z,9.90
2022-09-20T20:00:31.374Z,10.00
2022-09-20T20:02:59.836Z,9.90
2022-09-20T20:05:29.185Z,9.90
2022-09-20T20:08:02.683Z,9.90
2022-09-20T20:10:34.636Z,9.90
2022-09-20T20:13:04.186Z,9.80
2022-09-20T20:15:39.773Z,9.80
2022-09-20T20:18:15.868Z,9.80
2022-09-20T20:20:46.141Z,10.00
2022-09-20T20:23:38.168Z,9.80
2022-09-20T20:26:08.734Z,9.90
2022-09-20T20:28:37.476Z,9.80
2022-09-20T20:31:06.225Z,9.90
2022-09-20T20:33:34.013Z,9.70
2022-09-20T20:36:02.471Z,9.70
2022-09-20T20:38:37.209Z,9.80
2022-09-20T20:41:07.411Z,9.90
2022-09-20T20:43:36.562Z,9.70
2022-09-20T20:46:04.667Z,9.70
2022-09-20T20:48:32.460Z,9.80
2022-09-20T20:51:04.173Z,9.90
2022-09-20T20:53:32.919Z,9.80
2022-09-20T20:56:05.709Z,9.70
2022-09-20T20:58:36.193Z,9.70
2022-09-20T21:01:08.202Z,9.60
2022-09-20T21:03:35.990Z,9.50
2022-09-20T21:06:04.349Z,9.50
2022-09-20T21:08:33.085Z,9.40
2022-09-20T21:11:02.527Z,9.40
2022-09-20T21:13:30.607Z,9.40
2022-09-20T21:16:07.041Z,9.40
2022-09-20T21:18:35.355Z,9.40
2022-09-20T21:21:03.578Z,9.50
2022-09-20T21:23:34.685Z,9.60
2022-09-20T21:26:07.752Z,9.70
2022-09-20T21:28:36.738Z,9.70
2022-09-20T21:31:06.485Z,9.60
2022-09-20T21:33:34.586Z,9.40
2022-09-20T21:36:02.737Z,9.30
2022-09-20T21:38:33.209Z,9.30
2022-09-20T21:41:08.522Z,9.30
2022-09-20T21:43:36.706Z,9.10
2022-09-20T21:46:06.030Z,9.20
2022-09-20T21:48:33.852Z,9.20
2022-09-20T21:51:02.838Z,9.00
2022-09-20T21:53:30.695Z,9.00
2022-09-20T21:55:59.385Z,9.00
2022-09-20T21:58:27.320Z,9.00
2022-09-20T22:01:02.032Z,9.10
2022-09-20T22:03:35.202Z,9.00
2022-09-20T22:06:08.358Z,9.00
2022-09-20T22:08:36.602Z,8.90
2022-09-20T22:11:04.693Z,9.00
2022-09-20T22:13:32.582Z,8.90
2022-09-20T22:16:07.487Z,8.80
2022-09-20T22:18:38.266Z,8.70
2022-09-20T22:21:07.382Z,8.90
2022-09-20T22:23:35.396Z,8.90
2022-09-20T22:26:03.542Z,8.80
2022-09-20T22:28:31.307Z,8.80
2022-09-20T22:31:03.985Z,8.80
2022-09-20T22:33:32.679Z,8.70
2022-09-20T22:36:02.260Z,8.70
2022-09-20T22:38:31.354Z,8.60
2022-09-20T22:40:59.430Z,8.50
2022-09-20T22:43:27.452Z,8.50
2022-09-20T22:45:55.427Z,8.60
2022-09-20T22:48:23.387Z,8.60
2022-09-20T22:50:51.162Z,8.50
2022-09-20T22:53:20.271Z,8.60
2022-09-20T22:55:48.034Z,8.60
2022-09-20T22:58:15.813Z,8.50
2022-09-20T23:00:43.565Z,8.60
2022-09-20T23:03:11.571Z,8.70
2022-09-20T23:05:40.323Z,8.60
2022-09-20T23:08:08.102Z,8.50
2022-09-20T23:10:37.287Z,8.70
2022-09-20T23:13:05.065Z,8.70
2022-09-20T23:15:32.828Z,8.60
2022-09-20T23:18:00.682Z,8.80
2022-09-20T23:20:29.101Z,8.70
2022-09-20T23:22:56.903Z,8.60
2022-09-20T23:25:24.750Z,8.60
2022-09-20T23:27:55.147Z,8.50
2022-09-20T23:30:23.314Z,8.60
2022-09-20T23:32:51.490Z,8.70
2022-09-20T23:35:19.349Z,8.70
2022-09-20T23:37:47.200Z,8.80
2022-09-20T23:40:15.189Z,8.80
2022-09-20T23:42:43.014Z,8.80
2022-09-20T23:45:12.960Z,8.60
2022-09-20T23:47:40.830Z,8.70
2022-09-20T23:50:09.190Z,8.90
2022-09-20T23:52:37.228Z,8.70
2022-09-20T23:55:06.431Z,8.40
2022-09-20T23:57:34.311Z,8.40
